Fairway, Kansas
Current Conditions -  °F | °C
As of 11:54 AM on Monday 26 Jan 2015 (Local Time) from KMKC Reporting Station
Clear Clear  
Wind Chill: 45°   Ceiling: Unl
Heat Index: 49°   Visibility: 10mi
Dew Point: 32°   Wind: 8mph
Humidity: 52%   Direction: 250°WSW
Pressure: 29.93"   Gusts: NA
Location:  39.0312°N, 94.6315°W
Report Text: KMKC 261754Z 25007KT 10SM CLR 09/00 A2993 RMK AO2 SLP139 T00940000 10094 21017 56017
Loading
Personal Weather Stations






























Interactive Weather Map New forecast layout! Learn more

10-Day Weather Forecast

Advertisements
Track Severe Weather on mobile